sensor_id;sensor_type;location;lat;lon;timestamp;P1;durP1;ratioP1;P2;durP2;ratioP2
39674;SDS011;27790;50.840;4.386;2022-09-23T00:01:51;3.85;;;3.40;;
39674;SDS011;27790;50.840;4.386;2022-09-23T00:04:17;5.70;;;3.30;;
39674;SDS011;27790;50.840;4.386;2022-09-23T00:06:43;6.95;;;3.92;;
39674;SDS011;27790;50.840;4.386;2022-09-23T00:09:09;6.18;;;3.55;;
39674;SDS011;27790;50.840;4.386;2022-09-23T00:11:35;6.90;;;4.10;;
39674;SDS011;27790;50.840;4.386;2022-09-23T00:14:01;4.15;;;3.20;;
39674;SDS011;27790;50.840;4.386;2022-09-23T00:16:29;7.05;;;3.50;;
39674;SDS011;27790;50.840;4.386;2022-09-23T00:18:58;3.13;;;2.70;;
39674;SDS011;27790;50.840;4.386;2022-09-23T00:21:24;6.80;;;3.25;;
39674;SDS011;27790;50.840;4.386;2022-09-23T00:23:50;6.82;;;4.05;;
39674;SDS011;27790;50.840;4.386;2022-09-23T00:26:17;5.30;;;3.28;;
39674;SDS011;27790;50.840;4.386;2022-09-23T00:28:44;6.43;;;3.80;;
39674;SDS011;27790;50.840;4.386;2022-09-23T00:31:15;4.95;;;3.60;;
39674;SDS011;27790;50.840;4.386;2022-09-23T00:33:43;6.88;;;4.10;;
39674;SDS011;27790;50.840;4.386;2022-09-23T00:36:09;5.00;;;3.40;;
39674;SDS011;27790;50.840;4.386;2022-09-23T00:38:39;6.07;;;3.40;;
39674;SDS011;27790;50.840;4.386;2022-09-23T00:41:04;8.90;;;4.05;;
39674;SDS011;27790;50.840;4.386;2022-09-23T00:46:09;4.88;;;3.08;;
39674;SDS011;27790;50.840;4.386;2022-09-23T00:48:44;6.65;;;2.95;;
39674;SDS011;27790;50.840;4.386;2022-09-23T00:51:13;12.07;;;3.47;;
39674;SDS011;27790;50.840;4.386;2022-09-23T00:53:44;6.57;;;2.78;;
39674;SDS011;27790;50.840;4.386;2022-09-23T00:56:12;6.15;;;2.97;;
39674;SDS011;27790;50.840;4.386;2022-09-23T00:58:39;4.88;;;3.00;;
39674;SDS011;27790;50.840;4.386;2022-09-23T01:01:08;14.95;;;2.92;;
39674;SDS011;27790;50.840;4.386;2022-09-23T01:03:34;9.52;;;3.20;;
39674;SDS011;27790;50.840;4.386;2022-09-23T01:06:00;7.03;;;3.13;;
39674;SDS011;27790;50.840;4.386;2022-09-23T01:08:25;10.23;;;3.20;;
39674;SDS011;27790;50.840;4.386;2022-09-23T01:27:10;9.02;;;2.30;;
39674;SDS011;27790;50.840;4.386;2022-09-23T01:32:49;8.40;;;2.92;;
39674;SDS011;27790;50.840;4.386;2022-09-23T01:35:44;9.30;;;2.80;;
39674;SDS011;27790;50.840;4.386;2022-09-23T01:38:30;6.22;;;2.90;;
39674;SDS011;27790;50.840;4.386;2022-09-23T01:44:03;10.20;;;2.83;;
39674;SDS011;27790;50.840;4.386;2022-09-23T01:46:43;4.30;;;2.88;;
39674;SDS011;27790;50.840;4.386;2022-09-23T01:52:06;3.77;;;2.43;;
39674;SDS011;27790;50.840;4.386;2022-09-23T01:59:39;6.07;;;2.80;;
39674;SDS011;27790;50.840;4.386;2022-09-23T02:02:16;5.22;;;3.55;;
39674;SDS011;27790;50.840;4.386;2022-09-23T02:04:45;6.78;;;3.50;;
39674;SDS011;27790;50.840;4.386;2022-09-23T02:09:55;8.77;;;2.53;;
39674;SDS011;27790;50.840;4.386;2022-09-23T02:14:57;3.30;;;2.28;;
39674;SDS011;27790;50.840;4.386;2022-09-23T02:18:08;4.43;;;2.88;;
39674;SDS011;27790;50.840;4.386;2022-09-23T02:20:16;6.68;;;2.28;;
39674;SDS011;27790;50.840;4.386;2022-09-23T02:25:39;5.32;;;3.20;;
39674;SDS011;27790;50.840;4.386;2022-09-23T02:28:21;3.35;;;3.03;;
39674;SDS011;27790;50.840;4.386;2022-09-23T02:33:40;11.00;;;3.93;;
39674;SDS011;27790;50.840;4.386;2022-09-23T02:36:40;10.02;;;2.70;;
39674;SDS011;27790;50.840;4.386;2022-09-23T02:39:10;6.22;;;2.53;;
39674;SDS011;27790;50.840;4.386;2022-09-23T02:41:46;5.07;;;2.83;;
39674;SDS011;27790;50.840;4.386;2022-09-23T02:44:19;5.93;;;2.40;;
39674;SDS011;27790;50.840;4.386;2022-09-23T02:46:46;4.47;;;2.40;;
39674;SDS011;27790;50.840;4.386;2022-09-23T02:51:45;7.30;;;2.58;;
39674;SDS011;27790;50.840;4.386;2022-09-23T02:54:18;4.28;;;2.90;;
39674;SDS011;27790;50.840;4.386;2022-09-23T02:56:46;4.78;;;2.60;;
39674;SDS011;27790;50.840;4.386;2022-09-23T02:59:15;2.92;;;2.33;;
39674;SDS011;27790;50.840;4.386;2022-09-23T03:04:35;6.28;;;2.13;;
39674;SDS011;27790;50.840;4.386;2022-09-23T03:07:16;4.57;;;2.80;;
39674;SDS011;27790;50.840;4.386;2022-09-23T03:18:10;4.63;;;2.58;;
39674;SDS011;27790;50.840;4.386;2022-09-23T03:20:47;3.22;;;2.15;;
39674;SDS011;27790;50.840;4.386;2022-09-23T03:23:18;8.35;;;2.67;;
39674;SDS011;27790;50.840;4.386;2022-09-23T03:25:49;4.97;;;2.30;;
39674;SDS011;27790;50.840;4.386;2022-09-23T03:28:18;4.78;;;2.50;;
39674;SDS011;27790;50.840;4.386;2022-09-23T03:30:46;3.45;;;2.85;;
39674;SDS011;27790;50.840;4.386;2022-09-23T03:33:14;8.00;;;2.78;;
39674;SDS011;27790;50.840;4.386;2022-09-23T03:35:51;27.17;;;3.25;;
39674;SDS011;27790;50.840;4.386;2022-09-23T03:38:33;6.10;;;2.85;;
39674;SDS011;27790;50.840;4.386;2022-09-23T03:41:02;6.03;;;2.90;;
39674;SDS011;27790;50.840;4.386;2022-09-23T03:43:29;3.13;;;2.65;;
39674;SDS011;27790;50.840;4.386;2022-09-23T03:45:56;3.70;;;2.67;;
39674;SDS011;27790;50.840;4.386;2022-09-23T03:48:23;7.22;;;3.22;;
39674;SDS011;27790;50.840;4.386;2022-09-23T03:50:49;3.78;;;2.60;;
39674;SDS011;27790;50.840;4.386;2022-09-23T03:53:15;4.93;;;3.22;;
39674;SDS011;27790;50.840;4.386;2022-09-23T03:55:42;5.18;;;3.65;;
39674;SDS011;27790;50.840;4.386;2022-09-23T03:58:09;7.68;;;3.85;;
39674;SDS011;27790;50.840;4.386;2022-09-23T04:00:35;10.73;;;4.05;;
39674;SDS011;27790;50.840;4.386;2022-09-23T04:03:01;10.35;;;5.00;;
39674;SDS011;27790;50.840;4.386;2022-09-23T04:05:26;9.38;;;4.75;;
39674;SDS011;27790;50.840;4.386;2022-09-23T04:07:53;7.43;;;4.70;;
39674;SDS011;27790;50.840;4.386;2022-09-23T04:10:19;11.82;;;5.68;;
39674;SDS011;27790;50.840;4.386;2022-09-23T04:12:44;12.35;;;5.85;;
39674;SDS011;27790;50.840;4.386;2022-09-23T04:15:10;12.25;;;5.97;;
39674;SDS011;27790;50.840;4.386;2022-09-23T04:17:36;12.23;;;7.22;;
39674;SDS011;27790;50.840;4.386;2022-09-23T04:20:02;20.23;;;8.68;;
39674;SDS011;27790;50.840;4.386;2022-09-23T04:22:28;19.30;;;8.57;;
39674;SDS011;27790;50.840;4.386;2022-09-23T04:24:53;19.00;;;7.70;;
39674;SDS011;27790;50.840;4.386;2022-09-23T04:27:19;17.70;;;8.45;;
39674;SDS011;27790;50.840;4.386;2022-09-23T04:29:44;21.00;;;8.77;;
39674;SDS011;27790;50.840;4.386;2022-09-23T04:32:10;15.57;;;7.68;;
39674;SDS011;27790;50.840;4.386;2022-09-23T04:34:35;18.85;;;8.35;;
39674;SDS011;27790;50.840;4.386;2022-09-23T04:37:01;16.25;;;8.82;;
39674;SDS011;27790;50.840;4.386;2022-09-23T04:39:27;22.52;;;7.95;;
39674;SDS011;27790;50.840;4.386;2022-09-23T04:41:52;20.23;;;9.57;;
39674;SDS011;27790;50.840;4.386;2022-09-23T04:44:18;20.02;;;8.10;;
39674;SDS011;27790;50.840;4.386;2022-09-23T04:46:47;18.05;;;8.07;;
39674;SDS011;27790;50.840;4.386;2022-09-23T04:49:13;22.20;;;9.50;;
39674;SDS011;27790;50.840;4.386;2022-09-23T04:51:39;20.52;;;8.52;;
39674;SDS011;27790;50.840;4.386;2022-09-23T04:54:07;16.75;;;8.23;;
39674;SDS011;27790;50.840;4.386;2022-09-23T04:56:33;18.73;;;8.90;;
39674;SDS011;27790;50.840;4.386;2022-09-23T04:58:59;27.58;;;9.68;;
39674;SDS011;27790;50.840;4.386;2022-09-23T05:01:29;17.23;;;8.52;;
39674;SDS011;27790;50.840;4.386;2022-09-23T05:03:58;25.27;;;9.07;;
39674;SDS011;27790;50.840;4.386;2022-09-23T05:06:26;21.98;;;8.40;;
39674;SDS011;27790;50.840;4.386;2022-09-23T05:08:53;20.30;;;7.63;;
39674;SDS011;27790;50.840;4.386;2022-09-23T05:11:20;19.92;;;7.93;;
39674;SDS011;27790;50.840;4.386;2022-09-23T05:13:47;24.02;;;9.23;;
39674;SDS011;27790;50.840;4.386;2022-09-23T05:16:14;24.67;;;9.80;;
39674;SDS011;27790;50.840;4.386;2022-09-23T05:18:42;20.75;;;8.40;;
39674;SDS011;27790;50.840;4.386;2022-09-23T05:21:09;21.95;;;8.73;;
39674;SDS011;27790;50.840;4.386;2022-09-23T05:23:36;25.60;;;8.75;;
39674;SDS011;27790;50.840;4.386;2022-09-23T05:26:03;19.58;;;8.23;;
39674;SDS011;27790;50.840;4.386;2022-09-23T05:28:31;21.38;;;7.93;;
39674;SDS011;27790;50.840;4.386;2022-09-23T05:31:04;20.92;;;8.48;;
39674;SDS011;27790;50.840;4.386;2022-09-23T05:33:31;19.55;;;9.05;;
39674;SDS011;27790;50.840;4.386;2022-09-23T05:35:58;22.45;;;9.25;;
39674;SDS011;27790;50.840;4.386;2022-09-23T05:38:24;21.25;;;9.23;;
39674;SDS011;27790;50.840;4.386;2022-09-23T05:43:31;21.17;;;8.30;;
39674;SDS011;27790;50.840;4.386;2022-09-23T05:46:16;21.58;;;9.35;;
39674;SDS011;27790;50.840;4.386;2022-09-23T05:48:44;15.70;;;8.30;;
39674;SDS011;27790;50.840;4.386;2022-09-23T05:51:29;17.33;;;8.20;;
39674;SDS011;27790;50.840;4.386;2022-09-23T05:53:56;15.48;;;7.90;;
39674;SDS011;27790;50.840;4.386;2022-09-23T05:56:24;17.88;;;8.98;;
39674;SDS011;27790;50.840;4.386;2022-09-23T05:58:51;20.05;;;8.73;;
39674;SDS011;27790;50.840;4.386;2022-09-23T06:01:19;26.00;;;10.15;;
39674;SDS011;27790;50.840;4.386;2022-09-23T06:03:46;17.92;;;7.25;;
39674;SDS011;27790;50.840;4.386;2022-09-23T06:06:13;22.52;;;8.30;;
39674;SDS011;27790;50.840;4.386;2022-09-23T06:08:41;25.73;;;8.38;;
39674;SDS011;27790;50.840;4.386;2022-09-23T06:11:11;22.45;;;8.32;;
39674;SDS011;27790;50.840;4.386;2022-09-23T06:13:38;18.70;;;9.25;;
39674;SDS011;27790;50.840;4.386;2022-09-23T06:16:05;30.45;;;10.15;;
39674;SDS011;27790;50.840;4.386;2022-09-23T06:18:33;28.27;;;10.30;;
39674;SDS011;27790;50.840;4.386;2022-09-23T06:21:00;25.02;;;10.57;;
39674;SDS011;27790;50.840;4.386;2022-09-23T06:23:26;20.05;;;8.65;;
39674;SDS011;27790;50.840;4.386;2022-09-23T06:25:52;16.98;;;9.20;;
39674;SDS011;27790;50.840;4.386;2022-09-23T06:28:18;19.55;;;9.05;;
39674;SDS011;27790;50.840;4.386;2022-09-23T06:30:44;19.63;;;8.93;;
39674;SDS011;27790;50.840;4.386;2022-09-23T06:33:09;24.55;;;9.48;;
39674;SDS011;27790;50.840;4.386;2022-09-23T06:35:35;26.88;;;10.45;;
39674;SDS011;27790;50.840;4.386;2022-09-23T06:38:04;25.50;;;10.10;;
39674;SDS011;27790;50.840;4.386;2022-09-23T06:40:30;22.45;;;10.48;;
39674;SDS011;27790;50.840;4.386;2022-09-23T06:42:59;28.15;;;9.63;;
39674;SDS011;27790;50.840;4.386;2022-09-23T06:45:25;23.52;;;10.75;;
39674;SDS011;27790;50.840;4.386;2022-09-23T06:47:55;22.02;;;9.85;;
39674;SDS011;27790;50.840;4.386;2022-09-23T06:50:25;21.33;;;10.02;;
39674;SDS011;27790;50.840;4.386;2022-09-23T06:52:52;25.60;;;12.25;;
39674;SDS011;27790;50.840;4.386;2022-09-23T06:55:20;34.75;;;14.30;;
39674;SDS011;27790;50.840;4.386;2022-09-23T06:57:51;25.15;;;12.25;;
39674;SDS011;27790;50.840;4.386;2022-09-23T07:00:17;25.50;;;11.65;;
39674;SDS011;27790;50.840;4.386;2022-09-23T07:02:43;33.38;;;11.93;;
39674;SDS011;27790;50.840;4.386;2022-09-23T07:05:09;28.60;;;13.10;;
39674;SDS011;27790;50.840;4.386;2022-09-23T07:07:35;23.27;;;11.85;;
39674;SDS011;27790;50.840;4.386;2022-09-23T07:10:02;21.95;;;11.85;;
39674;SDS011;27790;50.840;4.386;2022-09-23T07:12:29;22.10;;;10.07;;
39674;SDS011;27790;50.840;4.386;2022-09-23T07:14:56;21.38;;;10.75;;
39674;SDS011;27790;50.840;4.386;2022-09-23T07:17:21;18.77;;;9.73;;
39674;SDS011;27790;50.840;4.386;2022-09-23T07:19:50;20.75;;;10.30;;
39674;SDS011;27790;50.840;4.386;2022-09-23T07:22:16;19.00;;;9.82;;
39674;SDS011;27790;50.840;4.386;2022-09-23T07:24:42;23.27;;;10.50;;
39674;SDS011;27790;50.840;4.386;2022-09-23T07:27:10;18.00;;;10.15;;
39674;SDS011;27790;50.840;4.386;2022-09-23T07:29:40;20.50;;;9.85;;
39674;SDS011;27790;50.840;4.386;2022-09-23T07:32:06;17.48;;;8.73;;
39674;SDS011;27790;50.840;4.386;2022-09-23T07:34:35;19.63;;;9.02;;
39674;SDS011;27790;50.840;4.386;2022-09-23T07:37:01;16.63;;;8.70;;
39674;SDS011;27790;50.840;4.386;2022-09-23T07:39:27;19.67;;;8.35;;
39674;SDS011;27790;50.840;4.386;2022-09-23T07:41:52;16.60;;;7.28;;
39674;SDS011;27790;50.840;4.386;2022-09-23T07:44:18;19.35;;;7.10;;
39674;SDS011;27790;50.840;4.386;2022-09-23T07:46:46;18.95;;;8.63;;
39674;SDS011;27790;50.840;4.386;2022-09-23T07:49:13;15.48;;;7.75;;
39674;SDS011;27790;50.840;4.386;2022-09-23T07:51:40;18.23;;;7.07;;
39674;SDS011;27790;50.840;4.386;2022-09-23T07:54:10;12.57;;;6.45;;
39674;SDS011;27790;50.840;4.386;2022-09-23T07:56:37;14.18;;;5.95;;
39674;SDS011;27790;50.840;4.386;2022-09-23T07:59:04;17.15;;;7.50;;
39674;SDS011;27790;50.840;4.386;2022-09-23T08:01:36;19.20;;;7.15;;
39674;SDS011;27790;50.840;4.386;2022-09-23T08:04:05;10.90;;;6.40;;
39674;SDS011;27790;50.840;4.386;2022-09-23T08:06:43;13.25;;;6.28;;
39674;SDS011;27790;50.840;4.386;2022-09-23T08:09:18;13.52;;;6.18;;
39674;SDS011;27790;50.840;4.386;2022-09-23T08:11:45;11.13;;;5.97;;
39674;SDS011;27790;50.840;4.386;2022-09-23T08:14:12;12.45;;;6.60;;
39674;SDS011;27790;50.840;4.386;2022-09-23T08:16:39;16.98;;;7.15;;
39674;SDS011;27790;50.840;4.386;2022-09-23T08:19:06;30.42;;;11.05;;
39674;SDS011;27790;50.840;4.386;2022-09-23T08:21:32;16.92;;;7.85;;
39674;SDS011;27790;50.840;4.386;2022-09-23T08:23:58;12.90;;;6.15;;
39674;SDS011;27790;50.840;4.386;2022-09-23T08:26:25;14.05;;;6.38;;
39674;SDS011;27790;50.840;4.386;2022-09-23T08:28:51;12.05;;;6.13;;
39674;SDS011;27790;50.840;4.386;2022-09-23T08:31:18;14.73;;;6.38;;
39674;SDS011;27790;50.840;4.386;2022-09-23T08:33:45;14.38;;;6.28;;
39674;SDS011;27790;50.840;4.386;2022-09-23T08:36:11;12.38;;;6.18;;
39674;SDS011;27790;50.840;4.386;2022-09-23T08:38:37;12.27;;;6.18;;
39674;SDS011;27790;50.840;4.386;2022-09-23T08:43:42;12.10;;;5.75;;
39674;SDS011;27790;50.840;4.386;2022-09-23T08:46:18;14.27;;;5.20;;
39674;SDS011;27790;50.840;4.386;2022-09-23T08:49:09;13.07;;;5.43;;
39674;SDS011;27790;50.840;4.386;2022-09-23T08:51:40;20.45;;;6.50;;
39674;SDS011;27790;50.840;4.386;2022-09-23T08:54:10;16.10;;;5.03;;
39674;SDS011;27790;50.840;4.386;2022-09-23T08:56:37;15.05;;;5.72;;
39674;SDS011;27790;50.840;4.386;2022-09-23T09:04:23;17.23;;;6.10;;
39674;SDS011;27790;50.840;4.386;2022-09-23T09:09:35;13.45;;;5.68;;
39674;SDS011;27790;50.840;4.386;2022-09-23T09:26:00;27.02;;;5.80;;
39674;SDS011;27790;50.840;4.386;2022-09-23T09:31:09;8.25;;;4.32;;
39674;SDS011;27790;50.840;4.386;2022-09-23T09:33:53;16.40;;;5.70;;
39674;SDS011;27790;50.840;4.386;2022-09-23T09:36:28;11.57;;;4.88;;
39674;SDS011;27790;50.840;4.386;2022-09-23T09:39:00;15.38;;;5.28;;
39674;SDS011;27790;50.840;4.386;2022-09-23T09:41:26;13.35;;;4.80;;
39674;SDS011;27790;50.840;4.386;2022-09-23T09:43:55;13.90;;;4.45;;
39674;SDS011;27790;50.840;4.386;2022-09-23T09:49:07;11.98;;;4.45;;
39674;SDS011;27790;50.840;4.386;2022-09-23T09:51:37;20.67;;;5.40;;
39674;SDS011;27790;50.840;4.386;2022-09-23T09:56:47;24.00;;;7.80;;
39674;SDS011;27790;50.840;4.386;2022-09-23T09:59:17;16.73;;;6.75;;
39674;SDS011;27790;50.840;4.386;2022-09-23T10:01:49;25.88;;;6.60;;
39674;SDS011;27790;50.840;4.386;2022-09-23T10:04:46;12.77;;;6.05;;
39674;SDS011;27790;50.840;4.386;2022-09-23T10:07:27;13.27;;;6.70;;
39674;SDS011;27790;50.840;4.386;2022-09-23T10:09:54;14.35;;;6.18;;
39674;SDS011;27790;50.840;4.386;2022-09-23T10:12:21;24.17;;;6.63;;
39674;SDS011;27790;50.840;4.386;2022-09-23T10:14:55;17.02;;;7.10;;
39674;SDS011;27790;50.840;4.386;2022-09-23T10:20:00;12.20;;;5.57;;
39674;SDS011;27790;50.840;4.386;2022-09-23T10:22:31;11.82;;;5.97;;
39674;SDS011;27790;50.840;4.386;2022-09-23T10:27:43;8.88;;;4.57;;
39674;SDS011;27790;50.840;4.386;2022-09-23T10:32:49;12.70;;;6.45;;
39674;SDS011;27790;50.840;4.386;2022-09-23T10:35:19;9.95;;;4.93;;
39674;SDS011;27790;50.840;4.386;2022-09-23T10:46:12;9.88;;;5.15;;
39674;SDS011;27790;50.840;4.386;2022-09-23T10:48:55;15.73;;;5.40;;
39674;SDS011;27790;50.840;4.386;2022-09-23T10:51:39;12.50;;;5.38;;
39674;SDS011;27790;50.840;4.386;2022-09-23T10:56:43;22.70;;;6.05;;
39674;SDS011;27790;50.840;4.386;2022-09-23T11:25:50;17.48;;;5.32;;
39674;SDS011;27790;50.840;4.386;2022-09-23T11:30:59;12.50;;;5.10;;
39674;SDS011;27790;50.840;4.386;2022-09-23T11:38:59;23.77;;;5.70;;
39674;SDS011;27790;50.840;4.386;2022-09-23T11:41:31;10.80;;;4.50;;
39674;SDS011;27790;50.840;4.386;2022-09-23T11:44:10;9.98;;;4.20;;
39674;SDS011;27790;50.840;4.386;2022-09-23T11:52:16;19.73;;;5.10;;
39674;SDS011;27790;50.840;4.386;2022-09-23T11:54:56;7.95;;;4.30;;
39674;SDS011;27790;50.840;4.386;2022-09-23T12:05:37;10.40;;;3.85;;
39674;SDS011;27790;50.840;4.386;2022-09-23T12:11:03;9.02;;;3.63;;
39674;SDS011;27790;50.840;4.386;2022-09-23T12:16:34;8.40;;;4.05;;
39674;SDS011;27790;50.840;4.386;2022-09-23T12:24:25;11.52;;;4.55;;
39674;SDS011;27790;50.840;4.386;2022-09-23T12:27:02;7.68;;;4.30;;
39674;SDS011;27790;50.840;4.386;2022-09-23T12:29:33;12.27;;;5.30;;
39674;SDS011;27790;50.840;4.386;2022-09-23T12:32:00;11.50;;;4.55;;
39674;SDS011;27790;50.840;4.386;2022-09-23T12:37:24;6.90;;;4.68;;
39674;SDS011;27790;50.840;4.386;2022-09-23T12:42:58;9.45;;;3.63;;
39674;SDS011;27790;50.840;4.386;2022-09-23T12:47:55;6.85;;;3.05;;
39674;SDS011;27790;50.840;4.386;2022-09-23T12:55:57;5.88;;;3.40;;
39674;SDS011;27790;50.840;4.386;2022-09-23T13:01:05;10.18;;;4.15;;
39674;SDS011;27790;50.840;4.386;2022-09-23T13:03:32;8.23;;;4.57;;
39674;SDS011;27790;50.840;4.386;2022-09-23T13:06:09;12.57;;;4.47;;
39674;SDS011;27790;50.840;4.386;2022-09-23T13:08:46;15.65;;;4.35;;
39674;SDS011;27790;50.840;4.386;2022-09-23T13:11:17;9.95;;;3.83;;
39674;SDS011;27790;50.840;4.386;2022-09-23T13:13:46;4.37;;;3.93;;
39674;SDS011;27790;50.840;4.386;2022-09-23T13:18:55;9.02;;;3.50;;
39674;SDS011;27790;50.840;4.386;2022-09-23T13:26:48;8.82;;;3.55;;
39674;SDS011;27790;50.840;4.386;2022-09-23T13:32:15;9.07;;;4.68;;
39674;SDS011;27790;50.840;4.386;2022-09-23T13:34:44;18.83;;;5.05;;
39674;SDS011;27790;50.840;4.386;2022-09-23T13:37:37;12.57;;;4.88;;
39674;SDS011;27790;50.840;4.386;2022-09-23T13:40:08;8.90;;;4.57;;
39674;SDS011;27790;50.840;4.386;2022-09-23T13:42:41;6.20;;;4.10;;
39674;SDS011;27790;50.840;4.386;2022-09-23T13:45:12;9.43;;;4.45;;
39674;SDS011;27790;50.840;4.386;2022-09-23T13:47:43;10.43;;;4.75;;
39674;SDS011;27790;50.840;4.386;2022-09-23T13:50:13;7.30;;;4.20;;
39674;SDS011;27790;50.840;4.386;2022-09-23T13:52:45;11.25;;;5.10;;
39674;SDS011;27790;50.840;4.386;2022-09-23T13:55:23;10.80;;;5.18;;
39674;SDS011;27790;50.840;4.386;2022-09-23T13:58:00;13.30;;;5.28;;
39674;SDS011;27790;50.840;4.386;2022-09-23T14:00:32;22.23;;;5.07;;
39674;SDS011;27790;50.840;4.386;2022-09-23T14:03:00;7.97;;;5.00;;
39674;SDS011;27790;50.840;4.386;2022-09-23T14:05:29;8.55;;;4.57;;
39674;SDS011;27790;50.840;4.386;2022-09-23T14:07:58;8.63;;;4.47;;
39674;SDS011;27790;50.840;4.386;2022-09-23T14:10:24;9.43;;;5.10;;
39674;SDS011;27790;50.840;4.386;2022-09-23T14:12:51;6.32;;;4.05;;
39674;SDS011;27790;50.840;4.386;2022-09-23T14:15:19;12.93;;;5.13;;
39674;SDS011;27790;50.840;4.386;2022-09-23T14:17:50;11.77;;;5.55;;
39674;SDS011;27790;50.840;4.386;2022-09-23T14:20:19;6.32;;;4.47;;
39674;SDS011;27790;50.840;4.386;2022-09-23T14:22:46;10.32;;;4.60;;
39674;SDS011;27790;50.840;4.386;2022-09-23T14:25:15;11.40;;;4.75;;
39674;SDS011;27790;50.840;4.386;2022-09-23T14:27:42;8.73;;;4.38;;
39674;SDS011;27790;50.840;4.386;2022-09-23T14:30:17;7.53;;;4.57;;
39674;SDS011;27790;50.840;4.386;2022-09-23T14:32:43;7.50;;;4.22;;
39674;SDS011;27790;50.840;4.386;2022-09-23T14:37:43;10.05;;;4.53;;
39674;SDS011;27790;50.840;4.386;2022-09-23T14:40:29;15.57;;;4.88;;
39674;SDS011;27790;50.840;4.386;2022-09-23T14:45:48;8.65;;;4.40;;
39674;SDS011;27790;50.840;4.386;2022-09-23T14:48:18;14.63;;;4.57;;
39674;SDS011;27790;50.840;4.386;2022-09-23T14:50:51;12.52;;;4.53;;
39674;SDS011;27790;50.840;4.386;2022-09-23T14:55:47;4.82;;;3.72;;
39674;SDS011;27790;50.840;4.386;2022-09-23T14:58:22;8.68;;;4.53;;
39674;SDS011;27790;50.840;4.386;2022-09-23T15:00:55;9.35;;;4.85;;
39674;SDS011;27790;50.840;4.386;2022-09-23T15:03:26;8.75;;;4.25;;
39674;SDS011;27790;50.840;4.386;2022-09-23T15:06:10;5.57;;;4.38;;
39674;SDS011;27790;50.840;4.386;2022-09-23T15:08:36;7.63;;;3.85;;
39674;SDS011;27790;50.840;4.386;2022-09-23T15:11:02;9.93;;;4.15;;
39674;SDS011;27790;50.840;4.386;2022-09-23T15:13:29;10.20;;;4.20;;
39674;SDS011;27790;50.840;4.386;2022-09-23T15:15:57;9.73;;;4.60;;
39674;SDS011;27790;50.840;4.386;2022-09-23T15:18:29;10.10;;;4.40;;
39674;SDS011;27790;50.840;4.386;2022-09-23T15:21:01;9.02;;;4.20;;
39674;SDS011;27790;50.840;4.386;2022-09-23T15:26:15;4.90;;;3.63;;
39674;SDS011;27790;50.840;4.386;2022-09-23T15:28:45;6.82;;;4.63;;
39674;SDS011;27790;50.840;4.386;2022-09-23T15:31:12;6.38;;;4.38;;
39674;SDS011;27790;50.840;4.386;2022-09-23T15:33:39;7.38;;;4.43;;
39674;SDS011;27790;50.840;4.386;2022-09-23T15:36:05;11.20;;;4.40;;
39674;SDS011;27790;50.840;4.386;2022-09-23T15:38:40;6.55;;;4.35;;
39674;SDS011;27790;50.840;4.386;2022-09-23T15:41:06;7.40;;;4.28;;
39674;SDS011;27790;50.840;4.386;2022-09-23T15:43:32;7.72;;;3.83;;
39674;SDS011;27790;50.840;4.386;2022-09-23T15:45:58;4.95;;;3.88;;
39674;SDS011;27790;50.840;4.386;2022-09-23T15:48:30;11.30;;;4.78;;
39674;SDS011;27790;50.840;4.386;2022-09-23T15:51:07;10.80;;;4.80;;
39674;SDS011;27790;50.840;4.386;2022-09-23T15:53:37;10.15;;;4.45;;
39674;SDS011;27790;50.840;4.386;2022-09-23T15:56:03;10.05;;;4.55;;
39674;SDS011;27790;50.840;4.386;2022-09-23T15:58:30;13.50;;;4.68;;
39674;SDS011;27790;50.840;4.386;2022-09-23T16:00:56;12.68;;;4.43;;
39674;SDS011;27790;50.840;4.386;2022-09-23T16:03:22;6.60;;;4.20;;
39674;SDS011;27790;50.840;4.386;2022-09-23T16:05:55;12.15;;;4.35;;
39674;SDS011;27790;50.840;4.386;2022-09-23T16:08:27;11.32;;;4.88;;
39674;SDS011;27790;50.840;4.386;2022-09-23T16:10:53;6.70;;;4.35;;
39674;SDS011;27790;50.840;4.386;2022-09-23T16:13:19;7.35;;;4.70;;
39674;SDS011;27790;50.840;4.386;2022-09-23T16:15:45;13.27;;;4.22;;
39674;SDS011;27790;50.840;4.386;2022-09-23T16:18:11;6.30;;;3.90;;
39674;SDS011;27790;50.840;4.386;2022-09-23T16:20:38;6.68;;;4.80;;
39674;SDS011;27790;50.840;4.386;2022-09-23T16:23:07;8.65;;;4.22;;
39674;SDS011;27790;50.840;4.386;2022-09-23T16:25:58;9.93;;;4.68;;
39674;SDS011;27790;50.840;4.386;2022-09-23T16:28:45;8.15;;;4.30;;
39674;SDS011;27790;50.840;4.386;2022-09-23T16:31:11;10.60;;;4.75;;
39674;SDS011;27790;50.840;4.386;2022-09-23T16:33:40;6.18;;;4.30;;
39674;SDS011;27790;50.840;4.386;2022-09-23T16:36:08;7.85;;;3.97;;
39674;SDS011;27790;50.840;4.386;2022-09-23T16:38:40;19.00;;;5.63;;
39674;SDS011;27790;50.840;4.386;2022-09-23T16:41:06;9.30;;;4.13;;
39674;SDS011;27790;50.840;4.386;2022-09-23T16:43:32;9.18;;;5.20;;
39674;SDS011;27790;50.840;4.386;2022-09-23T16:46:06;8.70;;;4.30;;
39674;SDS011;27790;50.840;4.386;2022-09-23T16:48:36;9.40;;;4.82;;
39674;SDS011;27790;50.840;4.386;2022-09-23T16:51:05;12.52;;;5.10;;
39674;SDS011;27790;50.840;4.386;2022-09-23T16:53:31;9.27;;;4.68;;
39674;SDS011;27790;50.840;4.386;2022-09-23T16:56:08;7.47;;;4.70;;
39674;SDS011;27790;50.840;4.386;2022-09-23T16:58:38;11.95;;;7.63;;
39674;SDS011;27790;50.840;4.386;2022-09-23T17:01:05;6.13;;;4.85;;
39674;SDS011;27790;50.840;4.386;2022-09-23T17:03:42;7.60;;;5.38;;
39674;SDS011;27790;50.840;4.386;2022-09-23T17:06:11;9.52;;;5.85;;
39674;SDS011;27790;50.840;4.386;2022-09-23T17:08:42;11.18;;;5.57;;
39674;SDS011;27790;50.840;4.386;2022-09-23T17:11:10;11.55;;;6.65;;
39674;SDS011;27790;50.840;4.386;2022-09-23T17:13:35;13.43;;;5.82;;
39674;SDS011;27790;50.840;4.386;2022-09-23T17:16:01;8.48;;;5.95;;
39674;SDS011;27790;50.840;4.386;2022-09-23T17:18:27;11.18;;;6.43;;
39674;SDS011;27790;50.840;4.386;2022-09-23T17:21:00;9.50;;;5.55;;
39674;SDS011;27790;50.840;4.386;2022-09-23T17:23:30;8.10;;;6.32;;
39674;SDS011;27790;50.840;4.386;2022-09-23T17:25:59;8.70;;;6.80;;
39674;SDS011;27790;50.840;4.386;2022-09-23T17:28:25;12.50;;;7.15;;
39674;SDS011;27790;50.840;4.386;2022-09-23T17:30:58;10.10;;;6.50;;
39674;SDS011;27790;50.840;4.386;2022-09-23T17:33:25;11.70;;;7.15;;
39674;SDS011;27790;50.840;4.386;2022-09-23T17:35:52;13.02;;;7.43;;
39674;SDS011;27790;50.840;4.386;2022-09-23T17:38:19;7.18;;;6.47;;
39674;SDS011;27790;50.840;4.386;2022-09-23T17:40:52;10.20;;;6.75;;
39674;SDS011;27790;50.840;4.386;2022-09-23T17:43:21;15.40;;;7.65;;
39674;SDS011;27790;50.840;4.386;2022-09-23T17:45:50;12.73;;;7.30;;
39674;SDS011;27790;50.840;4.386;2022-09-23T17:48:18;10.30;;;7.55;;
39674;SDS011;27790;50.840;4.386;2022-09-23T17:53:23;15.38;;;7.40;;
39674;SDS011;27790;50.840;4.386;2022-09-23T17:55:56;11.63;;;7.03;;
39674;SDS011;27790;50.840;4.386;2022-09-23T17:58:24;11.82;;;8.45;;
39674;SDS011;27790;50.840;4.386;2022-09-23T18:00:51;12.90;;;7.13;;
39674;SDS011;27790;50.840;4.386;2022-09-23T18:03:16;7.70;;;6.68;;
39674;SDS011;27790;50.840;4.386;2022-09-23T18:05:42;13.20;;;8.07;;
39674;SDS011;27790;50.840;4.386;2022-09-23T18:08:07;14.77;;;8.45;;
39674;SDS011;27790;50.840;4.386;2022-09-23T18:10:33;11.25;;;7.28;;
39674;SDS011;27790;50.840;4.386;2022-09-23T18:12:59;12.00;;;7.68;;
39674;SDS011;27790;50.840;4.386;2022-09-23T18:15:24;11.82;;;7.72;;
39674;SDS011;27790;50.840;4.386;2022-09-23T18:17:50;12.63;;;7.70;;
39674;SDS011;27790;50.840;4.386;2022-09-23T18:20:15;10.10;;;8.68;;
39674;SDS011;27790;50.840;4.386;2022-09-23T18:22:41;15.13;;;8.25;;
39674;SDS011;27790;50.840;4.386;2022-09-23T18:25:06;11.93;;;7.93;;